createdAt,value
2023-01-06T00:00:46.125Z,2.40
2023-01-06T00:03:12.868Z,2.50
2023-01-06T00:05:39.627Z,1.97
2023-01-06T00:08:06.422Z,2.40
2023-01-06T00:10:33.194Z,3.93
2023-01-06T00:12:59.859Z,6.10
2023-01-06T00:15:26.648Z,6.37
2023-01-06T00:17:53.382Z,4.13
2023-01-06T00:20:20.042Z,4.07
2023-01-06T00:22:46.776Z,4.00
2023-01-06T00:25:13.588Z,3.20
2023-01-06T00:27:40.472Z,2.70
2023-01-06T00:30:08.585Z,2.57
2023-01-06T00:32:35.795Z,1.57
2023-01-06T00:35:03.044Z,1.43
2023-01-06T00:37:29.933Z,1.70
2023-01-06T00:39:56.739Z,1.30
2023-01-06T00:42:25.018Z,1.43
2023-01-06T00:44:52.161Z,1.10
2023-01-06T00:47:19.687Z,1.20
2023-01-06T00:49:46.700Z,1.20
2023-01-06T00:52:13.852Z,1.00
2023-01-06T00:54:41.090Z,1.10
2023-01-06T00:57:08.297Z,1.20
2023-01-06T00:59:35.636Z,1.30
2023-01-06T01:02:03.207Z,0.97
2023-01-06T01:04:30.604Z,1.23
2023-01-06T01:06:57.494Z,1.00
2023-01-06T01:09:30.683Z,0.97
2023-01-06T01:12:10.459Z,1.03
2023-01-06T01:14:49.132Z,1.13
2023-01-06T01:17:19.553Z,0.70
2023-01-06T01:19:47.348Z,1.23
2023-01-06T01:22:14.832Z,1.10
2023-01-06T01:24:41.931Z,1.17
2023-01-06T01:27:09.047Z,1.13
2023-01-06T01:29:36.144Z,0.77
2023-01-06T01:32:03.128Z,1.03
2023-01-06T01:34:30.120Z,1.57
2023-01-06T01:36:57.085Z,1.93
2023-01-06T01:39:26.496Z,2.17
2023-01-06T01:41:54.689Z,2.10
2023-01-06T01:45:01.598Z,1.40
2023-01-06T01:47:47.472Z,2.10
2023-01-06T01:50:30.362Z,2.00
2023-01-06T01:53:03.303Z,2.23
2023-01-06T01:55:32.284Z,2.20
2023-01-06T01:58:08.415Z,1.90
2023-01-06T02:00:36.480Z,2.17
2023-01-06T02:03:05.128Z,2.43
2023-01-06T02:05:34.277Z,1.80
2023-01-06T02:08:05.556Z,2.80
2023-01-06T02:10:32.458Z,2.53
2023-01-06T02:13:00.730Z,2.53
2023-01-06T02:15:31.275Z,3.07
2023-01-06T02:18:14.526Z,2.13
2023-01-06T02:20:51.877Z,2.20
2023-01-06T02:23:33.749Z,1.53
2023-01-06T02:26:20.131Z,2.23
2023-01-06T02:28:49.841Z,1.53
2023-01-06T02:31:38.173Z,1.80
2023-01-06T02:34:29.647Z,2.03
2023-01-06T02:37:08.909Z,1.37
2023-01-06T02:39:52.656Z,1.20
2023-01-06T02:42:34.747Z,1.50
2023-01-06T02:45:37.152Z,1.90
2023-01-06T02:48:09.656Z,1.33
2023-01-06T02:50:42.130Z,2.33
2023-01-06T02:53:34.032Z,1.50
2023-01-06T02:56:02.446Z,1.60
2023-01-06T02:58:51.199Z,1.10
2023-01-06T03:01:37.768Z,1.33
2023-01-06T03:04:11.704Z,1.20
2023-01-06T03:06:45.128Z,1.30
2023-01-06T03:09:18.581Z,1.60
2023-01-06T03:11:50.823Z,1.10
2023-01-06T03:14:38.057Z,1.60
2023-01-06T03:17:05.167Z,1.07
2023-01-06T03:19:33.013Z,1.00
2023-01-06T03:22:01.825Z,1.07
2023-01-06T03:24:29.270Z,1.60
2023-01-06T03:26:56.423Z,1.10
2023-01-06T03:29:23.843Z,0.90
2023-01-06T03:32:25.713Z,0.83
2023-01-06T03:35:10.213Z,0.73
2023-01-06T03:37:54.776Z,0.90
2023-01-06T03:40:32.669Z,1.30
2023-01-06T03:43:17.350Z,1.00
2023-01-06T03:46:16.071Z,0.97
2023-01-06T03:48:58.131Z,1.13
2023-01-06T03:51:43.393Z,1.20
2023-01-06T03:54:38.635Z,1.07
2023-01-06T03:57:11.908Z,1.47
2023-01-06T03:59:54.835Z,1.00
2023-01-06T04:02:22.721Z,1.20
2023-01-06T04:05:10.040Z,1.00
2023-01-06T04:07:41.608Z,0.90
2023-01-06T04:10:09.180Z,0.90
2023-01-06T04:12:39.082Z,1.30
2023-01-06T04:15:12.291Z,0.90
2023-01-06T04:17:40.502Z,1.30
2023-01-06T04:20:09.515Z,0.80
2023-01-06T04:22:36.589Z,0.67
2023-01-06T04:25:04.112Z,1.03
2023-01-06T04:27:31.191Z,0.70
2023-01-06T04:29:57.844Z,0.80
2023-01-06T04:32:25.159Z,0.70
2023-01-06T04:34:51.952Z,0.90
2023-01-06T04:37:20.619Z,0.80
2023-01-06T04:39:48.344Z,0.70
2023-01-06T04:42:15.271Z,0.87
2023-01-06T04:44:42.675Z,0.67
2023-01-06T04:47:10.503Z,0.90
2023-01-06T04:49:37.562Z,0.67
2023-01-06T04:52:05.425Z,0.63
2023-01-06T04:54:32.113Z,0.63
2023-01-06T04:56:58.894Z,0.77
2023-01-06T04:59:25.547Z,0.70
2023-01-06T05:01:52.386Z,0.80
2023-01-06T05:04:19.778Z,0.77
2023-01-06T05:06:46.783Z,0.60
2023-01-06T05:09:13.527Z,0.50
2023-01-06T05:11:40.961Z,1.00
2023-01-06T05:14:07.773Z,0.77
2023-01-06T05:16:34.885Z,0.70
2023-01-06T05:19:01.934Z,1.00
2023-01-06T05:21:32.541Z,0.80
2023-01-06T05:24:00.213Z,0.60
2023-01-06T05:26:27.898Z,0.93
2023-01-06T05:28:55.412Z,0.50
2023-01-06T05:31:22.434Z,0.70
2023-01-06T05:33:49.237Z,0.70
2023-01-06T05:36:17.220Z,0.80
2023-01-06T05:38:44.884Z,0.60
2023-01-06T05:41:11.928Z,1.07
2023-01-06T05:43:38.981Z,0.90
2023-01-06T05:46:08.053Z,0.90
2023-01-06T05:48:35.541Z,0.83
2023-01-06T05:51:04.580Z,0.83
2023-01-06T05:53:32.992Z,0.70
2023-01-06T05:56:04.375Z,0.70
2023-01-06T05:58:33.419Z,0.70
2023-01-06T06:01:04.457Z,1.00
2023-01-06T06:03:32.178Z,0.60
2023-01-06T06:06:06.679Z,0.60
2023-01-06T06:08:33.736Z,0.60
2023-01-06T06:11:05.177Z,0.63
2023-01-06T06:13:32.682Z,0.60
2023-01-06T06:16:13.704Z,0.70
2023-01-06T06:18:44.331Z,0.60
2023-01-06T06:21:13.139Z,0.80
2023-01-06T06:23:40.725Z,0.77
2023-01-06T06:26:09.076Z,0.73
2023-01-06T06:28:36.754Z,1.00
2023-01-06T06:31:27.652Z,1.10
2023-01-06T06:33:56.721Z,0.90
2023-01-06T06:36:24.505Z,0.80
2023-01-06T06:38:52.510Z,0.80
2023-01-06T06:41:20.540Z,0.70
2023-01-06T06:43:49.368Z,1.00
2023-01-06T06:46:17.037Z,1.10
2023-01-06T06:48:44.087Z,0.60
2023-01-06T06:51:17.019Z,0.80
2023-01-06T06:53:44.450Z,0.87
2023-01-06T06:56:12.082Z,0.80
2023-01-06T06:58:39.454Z,2.00
2023-01-06T07:01:07.111Z,0.50
2023-01-06T07:03:34.233Z,0.80
2023-01-06T07:06:01.490Z,0.93
2023-01-06T07:08:28.956Z,0.80
2023-01-06T07:10:55.679Z,0.80
2023-01-06T07:13:22.417Z,0.80
2023-01-06T07:15:49.218Z,1.00
2023-01-06T07:18:16.138Z,1.90
2023-01-06T07:20:48.933Z,0.50
2023-01-06T07:23:16.746Z,0.70
2023-01-06T07:25:43.596Z,0.80
2023-01-06T07:28:10.441Z,0.60
2023-01-06T07:30:37.629Z,0.60
2023-01-06T07:33:04.836Z,0.53
2023-01-06T07:35:31.832Z,0.63
2023-01-06T07:38:06.287Z,0.60
2023-01-06T07:40:33.317Z,0.80
2023-01-06T07:43:07.223Z,0.70
2023-01-06T07:45:34.213Z,0.57
2023-01-06T07:48:01.573Z,0.80
2023-01-06T07:50:29.211Z,1.67
2023-01-06T07:53:00.734Z,1.20
2023-01-06T07:55:27.667Z,0.80
2023-01-06T07:57:54.691Z,0.80
2023-01-06T08:00:21.692Z,1.57
2023-01-06T08:02:49.268Z,0.90
2023-01-06T08:05:16.109Z,0.90
2023-01-06T08:07:42.912Z,0.93
2023-01-06T08:10:09.827Z,0.80
2023-01-06T08:12:37.242Z,0.70
2023-01-06T08:15:04.944Z,0.80
2023-01-06T08:17:31.763Z,0.97
2023-01-06T08:19:58.423Z,0.70
2023-01-06T08:22:25.269Z,0.93
2023-01-06T08:24:52.015Z,0.70
2023-01-06T08:27:20.558Z,0.80
2023-01-06T08:29:47.945Z,0.90
2023-01-06T08:32:14.784Z,1.00
2023-01-06T08:34:41.482Z,0.70
2023-01-06T08:37:08.267Z,0.90
2023-01-06T08:39:34.958Z,0.77
2023-01-06T08:42:01.770Z,0.60
2023-01-06T08:44:28.472Z,0.60
2023-01-06T08:46:55.155Z,0.70
2023-01-06T08:49:22.087Z,0.87
2023-01-06T08:51:48.999Z,0.93
2023-01-06T08:54:15.814Z,0.97
2023-01-06T08:56:44.661Z,0.57
2023-01-06T08:59:15.022Z,0.67
2023-01-06T09:01:42.456Z,0.70
2023-01-06T09:04:10.600Z,0.80
2023-01-06T09:06:37.806Z,0.80
2023-01-06T09:09:06.450Z,0.77
2023-01-06T09:11:33.489Z,0.60
2023-01-06T09:14:00.510Z,0.50
2023-01-06T09:16:27.281Z,0.70
2023-01-06T09:18:54.357Z,0.60
2023-01-06T09:21:23.106Z,0.70
2023-01-06T09:23:50.581Z,1.13
2023-01-06T09:26:18.941Z,1.17
2023-01-06T09:28:45.642Z,1.30
2023-01-06T09:31:12.809Z,0.80
2023-01-06T09:33:39.883Z,0.87
2023-01-06T09:36:07.264Z,0.90
2023-01-06T09:38:34.194Z,0.70
2023-01-06T09:41:32.957Z,0.60
2023-01-06T09:44:08.595Z,0.67
2023-01-06T09:46:39.306Z,0.60
2023-01-06T09:49:27.312Z,0.80
2023-01-06T09:52:36.074Z,0.70
2023-01-06T09:55:08.963Z,0.50
2023-01-06T09:57:45.758Z,0.80
2023-01-06T10:00:36.901Z,0.70
2023-01-06T10:03:04.379Z,0.87
2023-01-06T10:06:06.476Z,0.70
2023-01-06T10:09:18.300Z,0.50
2023-01-06T10:12:03.207Z,0.70
2023-01-06T10:14:46.404Z,1.10
2023-01-06T10:17:37.947Z,0.40
2023-01-06T10:20:44.646Z,0.70
2023-01-06T10:23:32.514Z,0.67
2023-01-06T10:26:21.880Z,0.57
2023-01-06T10:28:54.571Z,0.70
2023-01-06T10:31:26.431Z,0.80
2023-01-06T10:33:55.679Z,0.60
2023-01-06T10:36:52.920Z,0.67
2023-01-06T10:39:25.283Z,0.70
2023-01-06T10:42:48.730Z,0.47
2023-01-06T10:45:15.643Z,0.50
2023-01-06T10:47:44.080Z,0.60
2023-01-06T10:50:15.921Z,1.90
2023-01-06T10:52:43.709Z,0.60
2023-01-06T10:55:36.332Z,0.60
2023-01-06T10:58:20.884Z,0.70
2023-01-06T11:01:12.218Z,0.80
2023-01-06T11:03:45.602Z,0.50
2023-01-06T11:06:27.595Z,0.60
2023-01-06T11:08:54.930Z,0.60
2023-01-06T11:11:28.123Z,0.50
2023-01-06T11:14:03.608Z,0.40
2023-01-06T11:16:36.482Z,0.90
2023-01-06T11:19:05.516Z,0.70
2023-01-06T11:21:41.156Z,0.70
2023-01-06T11:24:19.935Z,0.70
2023-01-06T11:27:08.893Z,0.73
2023-01-06T11:29:36.227Z,4.83
2023-01-06T11:32:25.281Z,0.53
2023-01-06T11:34:54.793Z,0.73
2023-01-06T11:37:37.775Z,0.60
2023-01-06T11:40:19.486Z,0.40
2023-01-06T11:42:52.178Z,0.60
2023-01-06T11:45:39.319Z,0.50
2023-01-06T11:48:14.367Z,0.50
2023-01-06T11:50:41.220Z,0.60
2023-01-06T11:53:18.826Z,0.47
2023-01-06T11:56:02.427Z,0.50
2023-01-06T11:58:43.289Z,0.60
2023-01-06T12:01:57.398Z,0.50
2023-01-06T12:04:37.604Z,0.50
2023-01-06T12:07:32.071Z,0.60
2023-01-06T12:10:05.698Z,0.70
2023-01-06T12:12:32.640Z,0.80
2023-01-06T12:14:59.365Z,0.60
2023-01-06T12:17:40.509Z,0.70
2023-01-06T12:20:13.570Z,0.50
2023-01-06T12:22:49.016Z,0.70
2023-01-06T12:25:26.477Z,0.83
2023-01-06T12:28:06.025Z,0.90
2023-01-06T12:30:37.598Z,0.97
2023-01-06T12:33:13.690Z,0.70
2023-01-06T12:35:43.230Z,0.60
2023-01-06T12:38:29.047Z,1.27
2023-01-06T12:41:07.715Z,0.80
2023-01-06T12:43:38.982Z,0.53
2023-01-06T12:46:18.137Z,0.40
2023-01-06T12:48:59.570Z,0.60
2023-01-06T12:51:40.472Z,0.93
2023-01-06T12:54:11.151Z,0.57
2023-01-06T12:57:15.316Z,0.70
2023-01-06T13:00:08.292Z,0.63
2023-01-06T13:02:37.930Z,0.70
2023-01-06T13:05:07.897Z,1.13
2023-01-06T13:08:07.101Z,0.90
2023-01-06T13:11:20.282Z,0.70
2023-01-06T13:14:13.031Z,0.80
2023-01-06T13:17:04.330Z,0.60
2023-01-06T13:19:53.004Z,1.00
2023-01-06T13:22:43.516Z,0.63
2023-01-06T13:25:44.541Z,0.80
2023-01-06T13:28:17.295Z,1.00
2023-01-06T13:31:05.339Z,0.70
2023-01-06T13:33:40.882Z,1.90
2023-01-06T13:36:16.636Z,0.60
2023-01-06T13:39:22.339Z,0.50
2023-01-06T13:41:55.924Z,0.50
2023-01-06T13:44:26.707Z,0.60
2023-01-06T13:47:02.609Z,0.60
2023-01-06T13:49:31.273Z,0.60
2023-01-06T13:51:58.206Z,0.50
2023-01-06T13:54:40.367Z,0.67
2023-01-06T13:57:35.172Z,0.63
2023-01-06T14:00:04.737Z,0.90
2023-01-06T14:02:34.585Z,0.60
2023-01-06T14:05:22.517Z,0.50
2023-01-06T14:08:04.063Z,0.70
2023-01-06T14:10:36.365Z,0.40
2023-01-06T14:13:17.714Z,0.70
2023-01-06T14:15:58.715Z,0.70
2023-01-06T14:18:37.162Z,0.60
2023-01-06T14:21:25.537Z,0.70
2023-01-06T14:24:05.073Z,0.70
2023-01-06T14:26:45.163Z,0.63
2023-01-06T14:29:39.602Z,0.70
2023-01-06T14:32:13.976Z,0.70
2023-01-06T14:35:09.612Z,0.70
2023-01-06T14:37:50.762Z,0.80
2023-01-06T14:40:24.686Z,0.80
2023-01-06T14:42:52.260Z,0.90
2023-01-06T14:45:33.845Z,1.20
2023-01-06T14:48:05.597Z,0.70
2023-01-06T14:50:47.117Z,0.60
2023-01-06T14:53:41.983Z,0.80
2023-01-06T14:56:21.555Z,0.77
2023-01-06T14:58:48.527Z,1.50
2023-01-06T15:01:30.296Z,0.70
2023-01-06T15:03:59.461Z,1.13
2023-01-06T15:06:28.288Z,0.73
2023-01-06T15:09:09.986Z,1.10
2023-01-06T15:11:41.542Z,1.00
2023-01-06T15:14:27.427Z,0.80
2023-01-06T15:16:56.220Z,1.00
2023-01-06T15:19:23.447Z,1.33
2023-01-06T15:21:52.252Z,3.83
2023-01-06T15:24:24.432Z,1.67
2023-01-06T15:26:53.498Z,1.13
2023-01-06T15:29:24.356Z,0.90
2023-01-06T15:31:53.668Z,1.60
2023-01-06T15:34:42.779Z,0.97
2023-01-06T15:37:18.288Z,2.57
2023-01-06T15:39:45.482Z,1.23
2023-01-06T15:42:14.301Z,1.00
2023-01-06T15:44:41.210Z,1.87
2023-01-06T15:47:11.182Z,2.87
2023-01-06T15:49:48.141Z,1.40
2023-01-06T15:52:28.005Z,1.90
2023-01-06T15:54:57.784Z,1.60
2023-01-06T15:57:25.801Z,2.00
2023-01-06T16:00:05.532Z,1.97
2023-01-06T16:02:33.627Z,1.97
2023-01-06T16:05:01.147Z,1.37
2023-01-06T16:07:40.300Z,2.20
2023-01-06T16:10:29.542Z,2.63
2023-01-06T16:13:16.249Z,1.60
2023-01-06T16:16:09.865Z,1.93
2023-01-06T16:18:38.100Z,1.83
2023-01-06T16:21:21.041Z,1.30
2023-01-06T16:23:51.432Z,1.60
2023-01-06T16:26:22.153Z,1.03
2023-01-06T16:28:58.528Z,1.10
2023-01-06T16:31:38.939Z,1.10
2023-01-06T16:34:23.313Z,0.93
2023-01-06T16:36:51.914Z,1.30
2023-01-06T16:39:18.975Z,1.67
2023-01-06T16:42:00.845Z,1.60
2023-01-06T16:44:32.267Z,3.70
2023-01-06T16:47:00.302Z,1.30
2023-01-06T16:49:29.584Z,1.00
2023-01-06T16:51:56.371Z,1.20
2023-01-06T16:54:23.685Z,1.33
2023-01-06T16:56:52.173Z,1.63
2023-01-06T16:59:21.963Z,1.40
2023-01-06T17:01:48.841Z,2.07
2023-01-06T17:04:15.952Z,6.17
2023-01-06T17:06:45.605Z,1.27
2023-01-06T17:09:21.468Z,1.10
2023-01-06T17:11:49.267Z,1.30
2023-01-06T17:14:18.679Z,1.30
2023-01-06T17:16:47.547Z,1.27
2023-01-06T17:19:28.235Z,3.23
2023-01-06T17:22:21.993Z,1.40
2023-01-06T17:24:50.700Z,1.20
2023-01-06T17:27:26.468Z,1.90
2023-01-06T17:29:54.546Z,1.20
2023-01-06T17:32:34.099Z,1.30
2023-01-06T17:35:02.364Z,1.07
2023-01-06T17:37:30.946Z,0.90
2023-01-06T17:39:58.107Z,1.27
2023-01-06T17:42:30.701Z,1.00
2023-01-06T17:44:59.787Z,1.13
2023-01-06T17:47:38.821Z,1.40
2023-01-06T17:50:27.683Z,1.10
2023-01-06T17:53:46.286Z,1.43
2023-01-06T17:56:15.674Z,0.90
2023-01-06T17:58:45.468Z,1.47
2023-01-06T18:01:32.838Z,1.50
2023-01-06T18:04:01.013Z,1.97
2023-01-06T18:06:30.391Z,1.70
2023-01-06T18:09:10.112Z,1.50
2023-01-06T18:11:41.075Z,1.33
2023-01-06T18:14:40.073Z,1.20
2023-01-06T18:17:24.642Z,1.10
2023-01-06T18:19:51.595Z,0.93
2023-01-06T18:22:23.441Z,1.13
2023-01-06T18:24:56.369Z,1.33
2023-01-06T18:27:25.424Z,1.07
2023-01-06T18:29:52.862Z,1.20
2023-01-06T18:32:31.772Z,1.00
2023-01-06T18:35:02.028Z,1.10
2023-01-06T18:37:31.269Z,0.90
2023-01-06T18:40:05.674Z,1.03
2023-01-06T18:42:36.331Z,1.10
2023-01-06T18:45:09.290Z,0.90
2023-01-06T18:47:40.430Z,0.70
2023-01-06T18:50:19.065Z,1.23
2023-01-06T18:52:47.524Z,1.30
2023-01-06T18:55:24.220Z,0.80
2023-01-06T18:57:56.771Z,0.80
2023-01-06T19:00:38.660Z,1.17
2023-01-06T19:03:11.567Z,0.70
2023-01-06T19:05:38.311Z,1.27
2023-01-06T19:08:22.873Z,1.43
2023-01-06T19:10:50.077Z,1.30
2023-01-06T19:13:24.750Z,1.40
2023-01-06T19:15:51.751Z,1.23
2023-01-06T19:18:19.788Z,1.63
2023-01-06T19:20:47.281Z,1.00
2023-01-06T19:23:23.901Z,1.37
2023-01-06T19:26:19.701Z,1.40
2023-01-06T19:28:57.828Z,0.80
2023-01-06T19:31:24.712Z,1.00
2023-01-06T19:34:01.952Z,1.00
2023-01-06T19:36:47.992Z,1.30
2023-01-06T19:39:24.588Z,1.20
2023-01-06T19:41:54.613Z,1.00
2023-01-06T19:44:29.059Z,0.70
2023-01-06T19:46:55.760Z,1.37
2023-01-06T19:49:25.060Z,1.03
2023-01-06T19:51:54.180Z,0.80
2023-01-06T19:54:23.695Z,1.10
2023-01-06T19:56:51.421Z,0.90
2023-01-06T19:59:38.504Z,1.30
2023-01-06T20:02:08.011Z,0.87
2023-01-06T20:04:35.753Z,1.10
2023-01-06T20:07:02.930Z,0.70
2023-01-06T20:09:33.231Z,1.03
2023-01-06T20:12:00.623Z,0.80
2023-01-06T20:14:27.443Z,1.10
2023-01-06T20:16:54.362Z,0.80
2023-01-06T20:19:21.717Z,0.70
2023-01-06T20:21:48.540Z,0.63
2023-01-06T20:24:15.793Z,1.03
2023-01-06T20:26:43.109Z,0.87
2023-01-06T20:29:10.132Z,0.80
2023-01-06T20:31:37.161Z,0.77
2023-01-06T20:34:04.062Z,0.67
2023-01-06T20:36:30.857Z,1.17
2023-01-06T20:38:57.540Z,0.90
2023-01-06T20:41:24.302Z,0.80
2023-01-06T20:43:51.027Z,0.77
2023-01-06T20:46:17.775Z,1.30
2023-01-06T20:48:44.489Z,0.90
2023-01-06T20:51:11.271Z,0.90
2023-01-06T20:53:38.044Z,1.00
2023-01-06T20:56:05.115Z,1.20
2023-01-06T20:58:31.884Z,1.10
2023-01-06T21:00:58.780Z,1.07
2023-01-06T21:03:25.549Z,1.30
2023-01-06T21:05:52.397Z,1.10
2023-01-06T21:08:19.390Z,1.00
2023-01-06T21:10:46.206Z,1.23
2023-01-06T21:13:12.961Z,1.97
2023-01-06T21:15:39.715Z,0.83
2023-01-06T21:18:06.477Z,0.80
2023-01-06T21:20:33.193Z,0.83
2023-01-06T21:22:59.916Z,1.00
2023-01-06T21:25:26.618Z,1.00
2023-01-06T21:27:53.398Z,1.63
2023-01-06T21:30:20.205Z,1.10
2023-01-06T21:32:47.026Z,0.90
2023-01-06T21:35:13.980Z,0.73
2023-01-06T21:37:40.641Z,1.00
2023-01-06T21:40:09.035Z,1.00
2023-01-06T21:42:54.576Z,0.90
2023-01-06T21:45:21.393Z,0.90
2023-01-06T21:47:48.067Z,0.67
2023-01-06T21:50:14.809Z,0.80
2023-01-06T21:52:41.576Z,0.90
2023-01-06T21:55:08.947Z,0.77
2023-01-06T21:57:36.187Z,2.67
2023-01-06T22:00:05.957Z,0.60
2023-01-06T22:02:32.833Z,0.80
2023-01-06T22:04:59.712Z,0.73
2023-01-06T22:07:27.511Z,0.70
2023-01-06T22:09:55.595Z,1.00
2023-01-06T22:12:22.378Z,0.90
2023-01-06T22:14:53.379Z,0.57
2023-01-06T22:17:21.053Z,0.70
2023-01-06T22:19:49.197Z,0.50
2023-01-06T22:22:16.384Z,0.90
2023-01-06T22:24:43.918Z,0.93
2023-01-06T22:27:10.640Z,1.23
2023-01-06T22:29:37.361Z,1.00
2023-01-06T22:32:05.740Z,1.00
2023-01-06T22:34:32.612Z,0.77
2023-01-06T22:36:59.347Z,0.70
2023-01-06T22:39:26.199Z,0.90
2023-01-06T22:41:53.978Z,0.90
2023-01-06T22:44:20.920Z,0.90
2023-01-06T22:46:47.661Z,0.90
2023-01-06T22:49:15.028Z,0.80
2023-01-06T22:51:41.987Z,0.90
2023-01-06T22:54:08.896Z,1.43
2023-01-06T22:56:35.881Z,1.00
2023-01-06T22:59:02.743Z,1.17
2023-01-06T23:01:29.532Z,0.90
2023-01-06T23:03:56.221Z,1.00
2023-01-06T23:06:23.090Z,1.07
2023-01-06T23:08:59.646Z,0.97
2023-01-06T23:11:27.911Z,0.90
2023-01-06T23:13:58.441Z,1.33
2023-01-06T23:16:30.242Z,0.70
2023-01-06T23:18:57.413Z,0.70
2023-01-06T23:21:26.787Z,0.60
2023-01-06T23:23:54.196Z,0.70
2023-01-06T23:26:34.564Z,0.60
2023-01-06T23:29:01.769Z,0.80
2023-01-06T23:31:31.191Z,0.87
2023-01-06T23:34:02.718Z,0.70
2023-01-06T23:36:33.114Z,0.60
2023-01-06T23:39:01.608Z,2.77
2023-01-06T23:41:31.091Z,0.70
2023-01-06T23:43:58.345Z,4.07
2023-01-06T23:46:31.540Z,0.67
2023-01-06T23:48:58.988Z,0.70
2023-01-06T23:51:27.779Z,0.60
2023-01-06T23:53:54.470Z,0.70
2023-01-06T23:56:23.738Z,0.70
2023-01-06T23:58:53.584Z,0.63
